Kea — 9HA2207 — position and weather

sailwx.info

Track history (hours):
 
Tides and Currents Weather Stations Pressure Air Temp Water Temp Dewpoint Dewpoint Depression Visibility Wind Speed Wind Dir Waves Ship Positions

Kea

Last reported at 2014-Jul-09 11:29 UTC. Time now 2014-Jul-24 13:06 UTC.
Position N 28°51' W 094°25'.
Warning: this ship's position is 15 days out of date.

Length 225 m; draft 12 m.

Type: Cargo ship. MMSI: 248150000.

Date/timePositionNaut miles runAvg speedWind from/ knotsBaromVisibWave heightAir tempDewpointWater temp
2014-Jul-09 11:29N 28°51' W 094°25'1311.4
2014-Jul-09 10:20N 29°04' W 094°25'910.8
2014-Jul-09 09:29N 29°12' W 094°31'10 9.9
2014-Jul-09 08:31N 29°19' W 094°38'9 9.1
2014-Jul-09 07:33N 29°22' W 094°48'9 9.4
2014-Jul-09 06:33N 29°30' W 094°52'1010.1
2014-Jul-09 05:34N 29°39' W 094°58'8 7.5
2014-Jul-09 04:33N 29°45' W 095°04'3 2.8
2014-Jul-09 03:33N 29°44' W 095°07'0 0.0
2014-Jul-09 02:34N 29°44' W 095°07'0 0.0
2014-Jul-09 01:33N 29°44' W 095°07'0 0.0
2014-Jul-09 00:34N 29°44' W 095°07'0 0.0
2014-Jul-08 23:33N 29°44' W 095°07'0 0.0
2014-Jul-08 22:33N 29°44' W 095°07'0 0.0
2014-Jul-08 21:34N 29°44' W 095°07'0 0.0
2014-Jul-08 20:33N 29°44' W 095°07'0 0.0
2014-Jul-08 19:34N 29°44' W 095°07'0 0.0
2014-Jul-08 18:34N 29°44' W 095°07'0 0.0
2014-Jul-08 17:33N 29°44' W 095°07'0 0.0
2014-Jul-08 16:34N 29°44' W 095°07'0 0.0
2014-Jul-08 15:33N 29°44' W 095°07'0 0.0
2014-Jul-08 14:33N 29°44' W 095°07'0 0.0
2014-Jul-08 13:33N 29°44' W 095°07'0 0.0
2014-Jul-08 12:34N 29°44' W 095°07'0 0.0
2014-Jul-08 11:33N 29°44' W 095°07'0 0.0
2014-Jul-08 10:33N 29°44' W 095°07'0 0.0
2014-Jul-08 09:33N 29°44' W 095°07'0 0.0
2014-Jul-08 08:33N 29°44' W 095°07'0 0.0
2014-Jul-08 07:33N 29°44' W 095°07'0 0.0
2014-Jul-08 06:33N 29°44' W 095°07'0 0.0
2014-Jul-08 05:33N 29°44' W 095°07'0 0.0
2014-Jul-08 04:33N 29°44' W 095°07'0 0.0
2014-Jul-08 03:33N 29°44' W 095°07'0 0.0
2014-Jul-08 02:33N 29°44' W 095°07'0 0.0
2014-Jul-08 01:33N 29°44' W 095°07'0 0.0
2014-Jul-08 00:33N 29°44' W 095°07'0 0.0
2014-Jul-07 23:33N 29°44' W 095°07'0 0.0
2014-Jul-07 22:33N 29°44' W 095°07'0 0.0
2014-Jul-07 21:33N 29°44' W 095°07'0 0.0
2014-Jul-07 20:33N 29°44' W 095°07'0 0.0
2014-Jul-07 19:33N 29°44' W 095°07'0 0.0
2014-Jul-07 18:33N 29°44' W 095°07'0 0.0
2014-Jul-07 17:33N 29°44' W 095°07'0 0.0
2014-Jul-07 16:33N 29°44' W 095°07'0 0.0
2014-Jul-07 15:33N 29°44' W 095°07'0 0.0
2014-Jul-07 14:33N 29°44' W 095°07'0 0.0
2014-Jul-07 13:33N 29°44' W 095°07'0 0.0
2014-Jul-07 12:33N 29°44' W 095°07'0 0.0
2014-Jul-07 11:33N 29°44' W 095°07'0 0.0
2014-Jul-07 10:33N 29°44' W 095°07'0 0.0
2014-Jul-07 09:33N 29°44' W 095°07'0 0.0
2014-Jul-07 08:33N 29°44' W 095°07'0 0.0
2014-Jul-07 07:33N 29°44' W 095°07'0 0.0
2014-Jul-07 06:33N 29°44' W 095°07'0 0.0
2014-Jul-07 05:33N 29°44' W 095°07'0 0.0
2014-Jul-07 04:33N 29°44' W 095°07'0 0.0
2014-Jul-07 03:33N 29°44' W 095°07'0 0.0
2014-Jul-07 02:33N 29°44' W 095°07'0 0.0
2014-Jul-07 01:33N 29°44' W 095°07'0 0.0
2014-Jul-07 00:33N 29°44' W 095°07'0 0.0
2014-Jul-06 23:33N 29°44' W 095°07'0 0.0
2014-Jul-06 22:33N 29°44' W 095°07'0 0.0
2014-Jul-06 21:33N 29°44' W 095°07'0 0.0
2014-Jul-06 20:33N 29°44' W 095°07'0 0.0
2014-Jul-06 19:33N 29°44' W 095°07'0 0.0
2014-Jul-06 18:33N 29°44' W 095°07'0 0.0
2014-Jul-06 17:33N 29°44' W 095°07'0 0.0
2014-Jul-06 16:33N 29°44' W 095°07'0 0.0
2014-Jul-06 15:33N 29°44' W 095°07'0 0.0
2014-Jul-06 14:33N 29°44' W 095°07'0 0.0
2014-Jul-06 13:33N 29°44' W 095°07'0 0.0
2014-Jul-06 12:33N 29°44' W 095°07'0 0.0
2014-Jul-06 11:33N 29°44' W 095°07'0 0.0
2014-Jul-06 10:33N 29°44' W 095°07'0 0.0
2014-Jul-06 09:33N 29°44' W 095°07'0 0.0
2014-Jul-06 08:33N 29°44' W 095°07'0 0.0
2014-Jul-06 07:33N 29°44' W 095°07'0 0.0
2014-Jul-06 06:33N 29°44' W 095°07'0 0.0
2014-Jul-06 05:33N 29°44' W 095°07'0 0.0
2014-Jul-06 04:33N 29°44' W 095°07'0 0.0
2014-Jul-06 03:33N 29°44' W 095°07'0 0.0
2014-Jul-06 02:33N 29°44' W 095°07'0 0.0
2014-Jul-06 01:33N 29°44' W 095°07'0 0.0
2014-Jul-06 00:33N 29°44' W 095°07'0 0.0
2014-Jul-05 23:33N 29°44' W 095°07'0 0.0
2014-Jul-05 22:33N 29°44' W 095°07'0 0.0
2014-Jul-05 21:33N 29°44' W 095°07'0 0.0
2014-Jul-05 20:33N 29°44' W 095°07'0 0.0
2014-Jul-05 19:33N 29°44' W 095°07'0 0.0
2014-Jul-05 18:33N 29°44' W 095°07'0 0.0
2014-Jul-05 17:33N 29°44' W 095°07'0 0.0
2014-Jul-05 16:33N 29°44' W 095°07'0 0.0
2014-Jul-05 15:33N 29°44' W 095°07'0 0.0
2014-Jul-05 14:33N 29°44' W 095°07'0 0.0
2014-Jul-05 13:33N 29°44' W 095°07'0 0.0
2014-Jul-05 12:33N 29°44' W 095°07'0 0.0
2014-Jul-05 11:33N 29°44' W 095°07'0 0.0
2014-Jul-05 10:33N 29°44' W 095°07'0 0.0
2014-Jul-05 09:33N 29°44' W 095°07'0 0.0
2014-Jul-05 08:33N 29°44' W 095°07'0 0.0
2014-Jul-05 07:33N 29°44' W 095°07'0 0.0
2014-Jul-05 06:33N 29°44' W 095°07'0 0.0
2014-Jul-05 05:33N 29°44' W 095°07'0 0.0
2014-Jul-05 04:33N 29°44' W 095°07'0 0.0
2014-Jul-05 03:33N 29°44' W 095°07'0 0.0
2014-Jul-05 02:33N 29°44' W 095°07'0 0.0
2014-Jul-05 01:33N 29°44' W 095°07'0 0.0
2014-Jul-05 00:33N 29°44' W 095°07'0 0.0
2014-Jul-04 23:33N 29°44' W 095°07'0 0.0
2014-Jul-04 22:33N 29°44' W 095°07'0 0.0
2014-Jul-04 21:33N 29°44' W 095°07'0 0.0
2014-Jul-04 20:33N 29°44' W 095°07'0 0.0
2014-Jul-04 19:33N 29°44' W 095°07'0 0.0
2014-Jul-04 18:33N 29°44' W 095°07'0 0.0
2014-Jul-04 17:33N 29°44' W 095°07'0 0.0
2014-Jul-04 16:33N 29°44' W 095°07'0 0.0
2014-Jul-04 15:33N 29°44' W 095°07'0 0.0
2014-Jul-04 14:33N 29°44' W 095°07'0 0.0
2014-Jul-04 13:33N 29°44' W 095°07'0 0.0
2014-Jul-04 12:33N 29°44' W 095°07'0 0.0
2014-Jul-04 11:33N 29°44' W 095°07'0 0.0
2014-Jul-04 10:33N 29°44' W 095°07'0 0.0
2014-Jul-04 09:33N 29°44' W 095°07'0 0.0
2014-Jul-04 08:33N 29°44' W 095°07'0 0.0
2014-Jul-04 07:33N 29°44' W 095°07'0 0.0
2014-Jul-04 06:33N 29°44' W 095°07'0 0.0
2014-Jul-04 05:33N 29°44' W 095°07'0 0.0
2014-Jul-04 04:33N 29°44' W 095°07'0 0.0
2014-Jul-04 03:33N 29°44' W 095°07'0 0.0
2014-Jul-04 02:33N 29°44' W 095°07'0 0.0
2014-Jul-04 01:33N 29°44' W 095°07'0 0.0
2014-Jul-04 00:33N 29°44' W 095°07'0 0.0
2014-Jul-03 23:33N 29°44' W 095°07'4 4.2
2014-Jul-03 22:34N 29°45' W 095°12'4 4.1
2014-Jul-03 21:33N 29°44' W 095°16'1 1.1
2014-Jul-03 20:31N 29°44' W 095°17'0 0.0
2014-Jul-03 19:31N 29°44' W 095°17'0 0.0
2014-Jul-03 18:31N 29°44' W 095°17'0 0.0
2014-Jul-03 17:31N 29°44' W 095°17'0 0.0
2014-Jul-03 16:31N 29°44' W 095°17'0 0.0
2014-Jul-03 15:31N 29°44' W 095°17'0 0.0
2014-Jul-03 14:31N 29°44' W 095°17'0 0.0
2014-Jul-03 13:31N 29°44' W 095°17'0 0.0
2014-Jul-03 12:25N 29°44' W 095°17'0 0.0
2014-Jul-03 11:31N 29°44' W 095°17'0 0.0
2014-Jul-03 10:31N 29°44' W 095°17'0 0.0
2014-Jul-03 09:31N 29°44' W 095°17'0 0.0
2014-Jul-03 08:31N 29°44' W 095°17'0 0.0
2014-Jul-03 07:31N 29°44' W 095°17'0 0.0
2014-Jul-03 06:31N 29°44' W 095°17'0 0.0
2014-Jul-03 05:31N 29°44' W 095°17'0 0.0
2014-Jul-03 04:31N 29°44' W 095°17'0 0.0
2014-Jul-03 03:31N 29°44' W 095°17'0 0.0
2014-Jul-03 02:28N 29°44' W 095°17'0 0.0
2014-Jul-03 01:31N 29°44' W 095°17'0 0.0
2014-Jul-03 00:31N 29°44' W 095°17'0 0.0
2014-Jul-02 23:31N 29°44' W 095°17'0 0.0
2014-Jul-02 22:31N 29°44' W 095°17'0 0.0
2014-Jul-02 21:31N 29°44' W 095°17'0 0.0
2014-Jul-02 20:31N 29°44' W 095°17'0 0.0
2014-Jul-02 19:31N 29°44' W 095°17'0 0.0
2014-Jul-02 18:31N 29°44' W 095°17'0 0.0
2014-Jul-02 17:31N 29°44' W 095°17'0 0.0
2014-Jul-02 16:31N 29°44' W 095°17'0 0.0
2014-Jul-02 15:31N 29°44' W 095°17'0 0.0
2014-Jul-02 14:31N 29°44' W 095°17'0 0.0
2014-Jul-02 13:31N 29°44' W 095°17'0 0.5
2014-Jul-02 12:33N 29°45' W 095°17'3 3.3
2014-Jul-02 11:33N 29°44' W 095°14'5 4.5
2014-Jul-02 10:33N 29°44' W 095°09'5 5.2
2014-Jul-02 09:33N 29°44' W 095°03'9 9.0
2014-Jul-02 08:33N 29°36' W 094°57'1111.2
2014-Jul-02 07:33N 29°27' W 094°50'  
Track history (hours):
 
Tides and Currents Weather Stations Pressure Air Temp Water Temp Dewpoint Dewpoint Depression Visibility Wind Speed Wind Dir Waves Ship Positions

Kea

Last reported at 2014-Jul-09 11:29 UTC. Time now 2014-Jul-24 13:06 UTC.
Position N 28°51' W 094°25'.
Warning: this ship's position is 15 days out of date.

Length 225 m; draft 12 m.

Type: Cargo ship. MMSI: 248150000.

Date/timePositionNaut miles runAvg speedWind from/ knotsBaromVisibWave heightAir tempDewpointWater temp
2014-Jul-09 11:29N 28°51' W 094°25'1311.4
2014-Jul-09 10:20N 29°04' W 094°25'910.8
2014-Jul-09 09:29N 29°12' W 094°31'10 9.9
2014-Jul-09 08:31N 29°19' W 094°38'9 9.1
2014-Jul-09 07:33N 29°22' W 094°48'9 9.4
2014-Jul-09 06:33N 29°30' W 094°52'1010.1
2014-Jul-09 05:34N 29°39' W 094°58'8 7.5
2014-Jul-09 04:33N 29°45' W 095°04'3 2.8
2014-Jul-09 03:33N 29°44' W 095°07'0 0.0
2014-Jul-09 02:34N 29°44' W 095°07'0 0.0
2014-Jul-09 01:33N 29°44' W 095°07'0 0.0
2014-Jul-09 00:34N 29°44' W 095°07'0 0.0
2014-Jul-08 23:33N 29°44' W 095°07'0 0.0
2014-Jul-08 22:33N 29°44' W 095°07'0 0.0
2014-Jul-08 21:34N 29°44' W 095°07'0 0.0
2014-Jul-08 20:33N 29°44' W 095°07'0 0.0
2014-Jul-08 19:34N 29°44' W 095°07'0 0.0
2014-Jul-08 18:34N 29°44' W 095°07'0 0.0
2014-Jul-08 17:33N 29°44' W 095°07'0 0.0
2014-Jul-08 16:34N 29°44' W 095°07'0 0.0
2014-Jul-08 15:33N 29°44' W 095°07'0 0.0
2014-Jul-08 14:33N 29°44' W 095°07'0 0.0
2014-Jul-08 13:33N 29°44' W 095°07'0 0.0
2014-Jul-08 12:34N 29°44' W 095°07'0 0.0
2014-Jul-08 11:33N 29°44' W 095°07'0 0.0
2014-Jul-08 10:33N 29°44' W 095°07'0 0.0
2014-Jul-08 09:33N 29°44' W 095°07'0 0.0
2014-Jul-08 08:33N 29°44' W 095°07'0 0.0
2014-Jul-08 07:33N 29°44' W 095°07'0 0.0
2014-Jul-08 06:33N 29°44' W 095°07'0 0.0
2014-Jul-08 05:33N 29°44' W 095°07'0 0.0
2014-Jul-08 04:33N 29°44' W 095°07'0 0.0
2014-Jul-08 03:33N 29°44' W 095°07'0 0.0
2014-Jul-08 02:33N 29°44' W 095°07'0 0.0
2014-Jul-08 01:33N 29°44' W 095°07'0 0.0
2014-Jul-08 00:33N 29°44' W 095°07'0 0.0
2014-Jul-07 23:33N 29°44' W 095°07'0 0.0
2014-Jul-07 22:33N 29°44' W 095°07'0 0.0
2014-Jul-07 21:33N 29°44' W 095°07'0 0.0
2014-Jul-07 20:33N 29°44' W 095°07'0 0.0
2014-Jul-07 19:33N 29°44' W 095°07'0 0.0
2014-Jul-07 18:33N 29°44' W 095°07'0 0.0
2014-Jul-07 17:33N 29°44' W 095°07'0 0.0
2014-Jul-07 16:33N 29°44' W 095°07'0 0.0
2014-Jul-07 15:33N 29°44' W 095°07'0 0.0
2014-Jul-07 14:33N 29°44' W 095°07'0 0.0
2014-Jul-07 13:33N 29°44' W 095°07'0 0.0
2014-Jul-07 12:33N 29°44' W 095°07'0 0.0
2014-Jul-07 11:33N 29°44' W 095°07'0 0.0
2014-Jul-07 10:33N 29°44' W 095°07'0 0.0
2014-Jul-07 09:33N 29°44' W 095°07'0 0.0
2014-Jul-07 08:33N 29°44' W 095°07'0 0.0
2014-Jul-07 07:33N 29°44' W 095°07'0 0.0
2014-Jul-07 06:33N 29°44' W 095°07'0 0.0
2014-Jul-07 05:33N 29°44' W 095°07'0 0.0
2014-Jul-07 04:33N 29°44' W 095°07'0 0.0
2014-Jul-07 03:33N 29°44' W 095°07'0 0.0
2014-Jul-07 02:33N 29°44' W 095°07'0 0.0
2014-Jul-07 01:33N 29°44' W 095°07'0 0.0
2014-Jul-07 00:33N 29°44' W 095°07'0 0.0
2014-Jul-06 23:33N 29°44' W 095°07'0 0.0
2014-Jul-06 22:33N 29°44' W 095°07'0 0.0
2014-Jul-06 21:33N 29°44' W 095°07'0 0.0
2014-Jul-06 20:33N 29°44' W 095°07'0 0.0
2014-Jul-06 19:33N 29°44' W 095°07'0 0.0
2014-Jul-06 18:33N 29°44' W 095°07'0 0.0
2014-Jul-06 17:33N 29°44' W 095°07'0 0.0
2014-Jul-06 16:33N 29°44' W 095°07'0 0.0
2014-Jul-06 15:33N 29°44' W 095°07'0 0.0
2014-Jul-06 14:33N 29°44' W 095°07'0 0.0
2014-Jul-06 13:33N 29°44' W 095°07'0 0.0
2014-Jul-06 12:33N 29°44' W 095°07'0 0.0
2014-Jul-06 11:33N 29°44' W 095°07'0 0.0
2014-Jul-06 10:33N 29°44' W 095°07'0 0.0
2014-Jul-06 09:33N 29°44' W 095°07'0 0.0
2014-Jul-06 08:33N 29°44' W 095°07'0 0.0
2014-Jul-06 07:33N 29°44' W 095°07'0 0.0
2014-Jul-06 06:33N 29°44' W 095°07'0 0.0
2014-Jul-06 05:33N 29°44' W 095°07'0 0.0
2014-Jul-06 04:33N 29°44' W 095°07'0 0.0
2014-Jul-06 03:33N 29°44' W 095°07'0 0.0
2014-Jul-06 02:33N 29°44' W 095°07'0 0.0
2014-Jul-06 01:33N 29°44' W 095°07'0 0.0
2014-Jul-06 00:33N 29°44' W 095°07'0 0.0
2014-Jul-05 23:33N 29°44' W 095°07'0 0.0
2014-Jul-05 22:33N 29°44' W 095°07'0 0.0
2014-Jul-05 21:33N 29°44' W 095°07'0 0.0
2014-Jul-05 20:33N 29°44' W 095°07'0 0.0
2014-Jul-05 19:33N 29°44' W 095°07'0 0.0
2014-Jul-05 18:33N 29°44' W 095°07'0 0.0
2014-Jul-05 17:33N 29°44' W 095°07'0 0.0
2014-Jul-05 16:33N 29°44' W 095°07'0 0.0
2014-Jul-05 15:33N 29°44' W 095°07'0 0.0
2014-Jul-05 14:33N 29°44' W 095°07'0 0.0
2014-Jul-05 13:33N 29°44' W 095°07'0 0.0
2014-Jul-05 12:33N 29°44' W 095°07'0 0.0
2014-Jul-05 11:33N 29°44' W 095°07'0 0.0
2014-Jul-05 10:33N 29°44' W 095°07'0 0.0
2014-Jul-05 09:33N 29°44' W 095°07'0 0.0
2014-Jul-05 08:33N 29°44' W 095°07'0 0.0
2014-Jul-05 07:33N 29°44' W 095°07'0 0.0
2014-Jul-05 06:33N 29°44' W 095°07'0 0.0
2014-Jul-05 05:33N 29°44' W 095°07'0 0.0
2014-Jul-05 04:33N 29°44' W 095°07'0 0.0
2014-Jul-05 03:33N 29°44' W 095°07'0 0.0
2014-Jul-05 02:33N 29°44' W 095°07'0 0.0
2014-Jul-05 01:33N 29°44' W 095°07'0 0.0
2014-Jul-05 00:33N 29°44' W 095°07'0 0.0
2014-Jul-04 23:33N 29°44' W 095°07'0 0.0
2014-Jul-04 22:33N 29°44' W 095°07'0 0.0
2014-Jul-04 21:33N 29°44' W 095°07'0 0.0
2014-Jul-04 20:33N 29°44' W 095°07'0 0.0
2014-Jul-04 19:33N 29°44' W 095°07'0 0.0
2014-Jul-04 18:33N 29°44' W 095°07'0 0.0
2014-Jul-04 17:33N 29°44' W 095°07'0 0.0
2014-Jul-04 16:33N 29°44' W 095°07'0 0.0
2014-Jul-04 15:33N 29°44' W 095°07'0 0.0
2014-Jul-04 14:33N 29°44' W 095°07'0 0.0
2014-Jul-04 13:33N 29°44' W 095°07'0 0.0
2014-Jul-04 12:33N 29°44' W 095°07'0 0.0
2014-Jul-04 11:33N 29°44' W 095°07'0 0.0
2014-Jul-04 10:33N 29°44' W 095°07'0 0.0
2014-Jul-04 09:33N 29°44' W 095°07'0 0.0
2014-Jul-04 08:33N 29°44' W 095°07'0 0.0
2014-Jul-04 07:33N 29°44' W 095°07'0 0.0
2014-Jul-04 06:33N 29°44' W 095°07'0 0.0
2014-Jul-04 05:33N 29°44' W 095°07'0 0.0
2014-Jul-04 04:33N 29°44' W 095°07'0 0.0
2014-Jul-04 03:33N 29°44' W 095°07'0 0.0
2014-Jul-04 02:33N 29°44' W 095°07'0 0.0
2014-Jul-04 01:33N 29°44' W 095°07'0 0.0
2014-Jul-04 00:33N 29°44' W 095°07'0 0.0
2014-Jul-03 23:33N 29°44' W 095°07'4 4.2
2014-Jul-03 22:34N 29°45' W 095°12'4 4.1
2014-Jul-03 21:33N 29°44' W 095°16'1 1.1
2014-Jul-03 20:31N 29°44' W 095°17'0 0.0
2014-Jul-03 19:31N 29°44' W 095°17'0 0.0
2014-Jul-03 18:31N 29°44' W 095°17'0 0.0
2014-Jul-03 17:31N 29°44' W 095°17'0 0.0
2014-Jul-03 16:31N 29°44' W 095°17'0 0.0
2014-Jul-03 15:31N 29°44' W 095°17'0 0.0
2014-Jul-03 14:31N 29°44' W 095°17'0 0.0
2014-Jul-03 13:31N 29°44' W 095°17'0 0.0
2014-Jul-03 12:25N 29°44' W 095°17'0 0.0
2014-Jul-03 11:31N 29°44' W 095°17'0 0.0
2014-Jul-03 10:31N 29°44' W 095°17'0 0.0
2014-Jul-03 09:31N 29°44' W 095°17'0 0.0
2014-Jul-03 08:31N 29°44' W 095°17'0 0.0
2014-Jul-03 07:31N 29°44' W 095°17'0 0.0
2014-Jul-03 06:31N 29°44' W 095°17'0 0.0
2014-Jul-03 05:31N 29°44' W 095°17'0 0.0
2014-Jul-03 04:31N 29°44' W 095°17'0 0.0
2014-Jul-03 03:31N 29°44' W 095°17'0 0.0
2014-Jul-03 02:28N 29°44' W 095°17'0 0.0
2014-Jul-03 01:31N 29°44' W 095°17'0 0.0
2014-Jul-03 00:31N 29°44' W 095°17'0 0.0
2014-Jul-02 23:31N 29°44' W 095°17'0 0.0
2014-Jul-02 22:31N 29°44' W 095°17'0 0.0
2014-Jul-02 21:31N 29°44' W 095°17'0 0.0
2014-Jul-02 20:31N 29°44' W 095°17'0 0.0
2014-Jul-02 19:31N 29°44' W 095°17'0 0.0
2014-Jul-02 18:31N 29°44' W 095°17'0 0.0
2014-Jul-02 17:31N 29°44' W 095°17'0 0.0
2014-Jul-02 16:31N 29°44' W 095°17'0 0.0
2014-Jul-02 15:31N 29°44' W 095°17'0 0.0
2014-Jul-02 14:31N 29°44' W 095°17'0 0.0
2014-Jul-02 13:31N 29°44' W 095°17'0 0.5
2014-Jul-02 12:33N 29°45' W 095°17'3 3.3
2014-Jul-02 11:33N 29°44' W 095°14'5 4.5
2014-Jul-02 10:33N 29°44' W 095°09'5 5.2
2014-Jul-02 09:33N 29°44' W 095°03'9 9.0
2014-Jul-02 08:33N 29°36' W 094°57'1111.2
2014-Jul-02 07:33N 29°27' W 094°50'  

Dump ship's entire track history